sensor_id;sensor_type;location;lat;lon;timestamp;P1;durP1;ratioP1;P2;durP2;ratioP2
14686;SDS011;7431;49.440;11.084;2023-07-29T00:00:47;2.88;;;2.45;;
14686;SDS011;7431;49.440;11.084;2023-07-29T00:03:14;2.65;;;2.42;;
14686;SDS011;7431;49.440;11.084;2023-07-29T00:05:40;2.73;;;2.53;;
14686;SDS011;7431;49.440;11.084;2023-07-29T00:08:06;3.03;;;2.75;;
14686;SDS011;7431;49.440;11.084;2023-07-29T00:10:33;2.85;;;2.60;;
14686;SDS011;7431;49.440;11.084;2023-07-29T00:13:01;2.93;;;2.57;;
14686;SDS011;7431;49.440;11.084;2023-07-29T00:15:27;3.47;;;3.00;;
14686;SDS011;7431;49.440;11.084;2023-07-29T00:17:53;3.25;;;2.90;;
14686;SDS011;7431;49.440;11.084;2023-07-29T00:20:19;3.25;;;2.95;;
14686;SDS011;7431;49.440;11.084;2023-07-29T00:22:45;3.27;;;2.97;;
14686;SDS011;7431;49.440;11.084;2023-07-29T00:25:11;4.10;;;3.10;;
14686;SDS011;7431;49.440;11.084;2023-07-29T00:27:37;3.80;;;2.70;;
14686;SDS011;7431;49.440;11.084;2023-07-29T00:30:03;2.78;;;2.55;;
14686;SDS011;7431;49.440;11.084;2023-07-29T00:32:30;4.22;;;2.90;;
14686;SDS011;7431;49.440;11.084;2023-07-29T00:34:56;3.37;;;2.50;;
14686;SDS011;7431;49.440;11.084;2023-07-29T00:37:22;3.13;;;2.83;;
14686;SDS011;7431;49.440;11.084;2023-07-29T00:39:48;3.97;;;3.20;;
14686;SDS011;7431;49.440;11.084;2023-07-29T00:42:16;3.03;;;2.83;;
14686;SDS011;7431;49.440;11.084;2023-07-29T00:44:42;3.42;;;3.13;;
14686;SDS011;7431;49.440;11.084;2023-07-29T00:47:08;4.43;;;3.20;;
14686;SDS011;7431;49.440;11.084;2023-07-29T00:49:35;3.38;;;2.92;;
14686;SDS011;7431;49.440;11.084;2023-07-29T00:52:01;4.87;;;3.17;;
14686;SDS011;7431;49.440;11.084;2023-07-29T00:54:27;3.42;;;3.13;;
14686;SDS011;7431;49.440;11.084;2023-07-29T00:56:53;3.35;;;3.05;;
14686;SDS011;7431;49.440;11.084;2023-07-29T00:59:19;3.50;;;2.97;;
14686;SDS011;7431;49.440;11.084;2023-07-29T01:01:45;3.30;;;3.00;;
14686;SDS011;7431;49.440;11.084;2023-07-29T01:04:11;3.85;;;3.38;;
14686;SDS011;7431;49.440;11.084;2023-07-29T01:11:38;3.28;;;3.00;;
14686;SDS011;7431;49.440;11.084;2023-07-29T01:14:11;3.63;;;3.13;;
14686;SDS011;7431;49.440;11.084;2023-07-29T01:16:42;3.47;;;3.10;;
14686;SDS011;7431;49.440;11.084;2023-07-29T01:19:29;4.30;;;2.97;;
14686;SDS011;7431;49.440;11.084;2023-07-29T01:21:56;4.05;;;3.10;;
14686;SDS011;7431;49.440;11.084;2023-07-29T01:24:23;3.10;;;2.80;;
14686;SDS011;7431;49.440;11.084;2023-07-29T01:26:49;2.90;;;2.70;;
14686;SDS011;7431;49.440;11.084;2023-07-29T01:29:15;3.23;;;2.97;;
14686;SDS011;7431;49.440;11.084;2023-07-29T01:31:43;3.42;;;3.00;;
14686;SDS011;7431;49.440;11.084;2023-07-29T01:34:13;3.00;;;2.45;;
14686;SDS011;7431;49.440;11.084;2023-07-29T01:36:42;3.53;;;2.90;;
14686;SDS011;7431;49.440;11.084;2023-07-29T01:39:08;3.47;;;3.17;;
14686;SDS011;7431;49.440;11.084;2023-07-29T01:41:36;3.27;;;2.97;;
14686;SDS011;7431;49.440;11.084;2023-07-29T01:44:02;4.30;;;3.57;;
14686;SDS011;7431;49.440;11.084;2023-07-29T01:46:28;4.13;;;3.73;;
14686;SDS011;7431;49.440;11.084;2023-07-29T01:48:54;4.27;;;3.17;;
14686;SDS011;7431;49.440;11.084;2023-07-29T01:51:20;3.93;;;3.10;;
14686;SDS011;7431;49.440;11.084;2023-07-29T01:53:47;4.13;;;3.40;;
14686;SDS011;7431;49.440;11.084;2023-07-29T01:56:13;3.75;;;3.45;;
14686;SDS011;7431;49.440;11.084;2023-07-29T01:58:38;3.77;;;3.17;;
14686;SDS011;7431;49.440;11.084;2023-07-29T02:01:04;4.37;;;3.87;;
14686;SDS011;7431;49.440;11.084;2023-07-29T02:03:30;3.90;;;3.50;;
14686;SDS011;7431;49.440;11.084;2023-07-29T02:05:56;4.17;;;3.33;;
14686;SDS011;7431;49.440;11.084;2023-07-29T02:08:23;3.90;;;3.27;;
14686;SDS011;7431;49.440;11.084;2023-07-29T02:10:49;4.60;;;3.50;;
14686;SDS011;7431;49.440;11.084;2023-07-29T02:13:15;3.90;;;3.20;;
14686;SDS011;7431;49.440;11.084;2023-07-29T02:15:41;4.40;;;3.53;;
14686;SDS011;7431;49.440;11.084;2023-07-29T02:18:07;3.60;;;3.30;;
14686;SDS011;7431;49.440;11.084;2023-07-29T02:20:33;3.83;;;3.47;;
14686;SDS011;7431;49.440;11.084;2023-07-29T02:22:59;3.83;;;3.50;;
14686;SDS011;7431;49.440;11.084;2023-07-29T02:25:25;3.83;;;3.30;;
14686;SDS011;7431;49.440;11.084;2023-07-29T02:27:51;3.33;;;2.97;;
14686;SDS011;7431;49.440;11.084;2023-07-29T02:30:17;3.93;;;3.40;;
14686;SDS011;7431;49.440;11.084;2023-07-29T02:32:43;3.90;;;3.60;;
14686;SDS011;7431;49.440;11.084;2023-07-29T02:35:09;3.90;;;3.43;;
14686;SDS011;7431;49.440;11.084;2023-07-29T02:37:35;4.83;;;3.83;;
14686;SDS011;7431;49.440;11.084;2023-07-29T02:40:01;4.10;;;3.70;;
14686;SDS011;7431;49.440;11.084;2023-07-29T02:42:28;5.90;;;4.07;;
14686;SDS011;7431;49.440;11.084;2023-07-29T02:44:53;6.70;;;4.10;;
14686;SDS011;7431;49.440;11.084;2023-07-29T02:47:19;6.77;;;4.43;;
14686;SDS011;7431;49.440;11.084;2023-07-29T02:49:45;4.83;;;4.20;;
14686;SDS011;7431;49.440;11.084;2023-07-29T02:52:11;4.27;;;3.70;;
14686;SDS011;7431;49.440;11.084;2023-07-29T02:54:37;4.50;;;4.10;;
14686;SDS011;7431;49.440;11.084;2023-07-29T02:57:03;3.80;;;3.40;;
14686;SDS011;7431;49.440;11.084;2023-07-29T02:59:29;5.10;;;3.87;;
14686;SDS011;7431;49.440;11.084;2023-07-29T03:01:55;4.47;;;3.37;;
14686;SDS011;7431;49.440;11.084;2023-07-29T03:04:21;4.30;;;3.63;;
14686;SDS011;7431;49.440;11.084;2023-07-29T03:06:48;3.97;;;3.57;;
14686;SDS011;7431;49.440;11.084;2023-07-29T03:09:14;4.73;;;3.67;;
14686;SDS011;7431;49.440;11.084;2023-07-29T03:11:40;3.83;;;3.53;;
14686;SDS011;7431;49.440;11.084;2023-07-29T03:14:06;4.03;;;3.67;;
14686;SDS011;7431;49.440;11.084;2023-07-29T03:16:32;5.03;;;3.33;;
14686;SDS011;7431;49.440;11.084;2023-07-29T03:18:58;4.13;;;3.23;;
14686;SDS011;7431;49.440;11.084;2023-07-29T03:21:25;4.77;;;4.23;;
14686;SDS011;7431;49.440;11.084;2023-07-29T03:23:51;4.53;;;4.13;;
14686;SDS011;7431;49.440;11.084;2023-07-29T03:26:17;6.27;;;4.40;;
14686;SDS011;7431;49.440;11.084;2023-07-29T03:28:43;4.83;;;3.97;;
14686;SDS011;7431;49.440;11.084;2023-07-29T03:31:09;4.57;;;4.03;;
14686;SDS011;7431;49.440;11.084;2023-07-29T03:33:36;4.50;;;4.10;;
14686;SDS011;7431;49.440;11.084;2023-07-29T03:36:02;5.17;;;4.47;;
14686;SDS011;7431;49.440;11.084;2023-07-29T03:38:28;5.00;;;4.03;;
14686;SDS011;7431;49.440;11.084;2023-07-29T03:40:54;4.83;;;4.33;;
14686;SDS011;7431;49.440;11.084;2023-07-29T03:43:20;4.53;;;4.10;;
14686;SDS011;7431;49.440;11.084;2023-07-29T03:45:46;4.83;;;4.27;;
14686;SDS011;7431;49.440;11.084;2023-07-29T03:48:12;5.57;;;4.63;;
14686;SDS011;7431;49.440;11.084;2023-07-29T03:50:38;4.93;;;4.43;;
14686;SDS011;7431;49.440;11.084;2023-07-29T03:53:04;6.20;;;4.17;;
14686;SDS011;7431;49.440;11.084;2023-07-29T03:55:31;4.90;;;4.40;;
14686;SDS011;7431;49.440;11.084;2023-07-29T03:57:57;7.97;;;5.30;;
14686;SDS011;7431;49.440;11.084;2023-07-29T04:00:23;5.27;;;4.70;;
14686;SDS011;7431;49.440;11.084;2023-07-29T04:02:50;6.10;;;4.53;;
14686;SDS011;7431;49.440;11.084;2023-07-29T04:05:16;6.07;;;4.57;;
14686;SDS011;7431;49.440;11.084;2023-07-29T04:07:42;5.53;;;4.20;;
14686;SDS011;7431;49.440;11.084;2023-07-29T04:10:08;7.13;;;4.70;;
14686;SDS011;7431;49.440;11.084;2023-07-29T04:12:34;5.10;;;4.53;;
14686;SDS011;7431;49.440;11.084;2023-07-29T04:15:00;4.77;;;4.33;;
14686;SDS011;7431;49.440;11.084;2023-07-29T04:17:26;4.03;;;3.70;;
14686;SDS011;7431;49.440;11.084;2023-07-29T04:19:52;4.30;;;3.90;;
14686;SDS011;7431;49.440;11.084;2023-07-29T04:22:18;4.47;;;4.07;;
14686;SDS011;7431;49.440;11.084;2023-07-29T04:24:44;4.82;;;3.78;;
14686;SDS011;7431;49.440;11.084;2023-07-29T04:27:10;4.27;;;3.87;;
14686;SDS011;7431;49.440;11.084;2023-07-29T04:29:36;4.90;;;3.53;;
14686;SDS011;7431;49.440;11.084;2023-07-29T04:32:02;4.50;;;3.67;;
14686;SDS011;7431;49.440;11.084;2023-07-29T04:34:28;3.90;;;3.50;;
14686;SDS011;7431;49.440;11.084;2023-07-29T04:36:54;3.53;;;3.22;;
14686;SDS011;7431;49.440;11.084;2023-07-29T04:39:20;3.85;;;2.90;;
14686;SDS011;7431;49.440;11.084;2023-07-29T04:41:46;3.50;;;2.95;;
14686;SDS011;7431;49.440;11.084;2023-07-29T04:44:12;3.08;;;2.70;;
14686;SDS011;7431;49.440;11.084;2023-07-29T04:46:38;4.13;;;2.85;;
14686;SDS011;7431;49.440;11.084;2023-07-29T04:49:04;3.88;;;2.65;;
14686;SDS011;7431;49.440;11.084;2023-07-29T04:51:30;4.47;;;2.92;;
14686;SDS011;7431;49.440;11.084;2023-07-29T04:53:57;3.33;;;2.50;;
14686;SDS011;7431;49.440;11.084;2023-07-29T04:56:23;3.35;;;2.33;;
14686;SDS011;7431;49.440;11.084;2023-07-29T04:58:49;2.95;;;2.33;;
14686;SDS011;7431;49.440;11.084;2023-07-29T05:01:15;5.32;;;2.55;;
14686;SDS011;7431;49.440;11.084;2023-07-29T05:03:41;2.33;;;2.10;;
14686;SDS011;7431;49.440;11.084;2023-07-29T05:06:07;2.97;;;2.28;;
14686;SDS011;7431;49.440;11.084;2023-07-29T05:08:33;2.33;;;1.80;;
14686;SDS011;7431;49.440;11.084;2023-07-29T05:10:59;2.70;;;1.90;;
14686;SDS011;7431;49.440;11.084;2023-07-29T05:13:25;2.00;;;1.90;;
14686;SDS011;7431;49.440;11.084;2023-07-29T05:15:51;2.38;;;1.92;;
14686;SDS011;7431;49.440;11.084;2023-07-29T05:18:17;2.03;;;1.90;;
14686;SDS011;7431;49.440;11.084;2023-07-29T05:20:43;2.00;;;1.90;;
14686;SDS011;7431;49.440;11.084;2023-07-29T05:23:09;2.33;;;2.13;;
14686;SDS011;7431;49.440;11.084;2023-07-29T05:25:35;2.50;;;2.05;;
14686;SDS011;7431;49.440;11.084;2023-07-29T05:28:02;2.08;;;1.88;;
14686;SDS011;7431;49.440;11.084;2023-07-29T05:30:28;1.95;;;1.85;;
14686;SDS011;7431;49.440;11.084;2023-07-29T05:32:56;3.10;;;1.90;;
14686;SDS011;7431;49.440;11.084;2023-07-29T05:35:22;1.70;;;1.60;;
14686;SDS011;7431;49.440;11.084;2023-07-29T05:37:48;1.85;;;1.75;;
14686;SDS011;7431;49.440;11.084;2023-07-29T05:40:14;1.90;;;1.77;;
14686;SDS011;7431;49.440;11.084;2023-07-29T05:42:40;2.45;;;1.80;;
14686;SDS011;7431;49.440;11.084;2023-07-29T05:45:06;1.83;;;1.73;;
14686;SDS011;7431;49.440;11.084;2023-07-29T05:47:32;1.90;;;1.70;;
14686;SDS011;7431;49.440;11.084;2023-07-29T05:49:58;1.95;;;1.75;;
14686;SDS011;7431;49.440;11.084;2023-07-29T05:52:28;1.63;;;1.52;;
14686;SDS011;7431;49.440;11.084;2023-07-29T05:54:53;3.55;;;1.88;;
14686;SDS011;7431;49.440;11.084;2023-07-29T05:57:19;2.00;;;1.80;;
14686;SDS011;7431;49.440;11.084;2023-07-29T05:59:45;1.92;;;1.73;;
14686;SDS011;7431;49.440;11.084;2023-07-29T06:02:11;2.13;;;1.92;;
14686;SDS011;7431;49.440;11.084;2023-07-29T06:04:37;3.10;;;1.98;;
14686;SDS011;7431;49.440;11.084;2023-07-29T06:07:03;2.50;;;1.92;;
14686;SDS011;7431;49.440;11.084;2023-07-29T06:09:29;2.10;;;1.88;;
14686;SDS011;7431;49.440;11.084;2023-07-29T06:11:55;2.08;;;1.88;;
14686;SDS011;7431;49.440;11.084;2023-07-29T06:14:21;1.98;;;1.77;;
14686;SDS011;7431;49.440;11.084;2023-07-29T06:16:47;2.60;;;1.90;;
14686;SDS011;7431;49.440;11.084;2023-07-29T06:19:13;3.05;;;2.00;;
14686;SDS011;7431;49.440;11.084;2023-07-29T06:21:39;3.95;;;2.20;;
14686;SDS011;7431;49.440;11.084;2023-07-29T06:24:05;1.88;;;1.70;;
14686;SDS011;7431;49.440;11.084;2023-07-29T06:26:31;2.33;;;1.73;;
14686;SDS011;7431;49.440;11.084;2023-07-29T06:28:57;2.28;;;1.92;;
14686;SDS011;7431;49.440;11.084;2023-07-29T06:31:23;3.30;;;2.30;;
14686;SDS011;7431;49.440;11.084;2023-07-29T06:33:49;2.33;;;2.13;;
14686;SDS011;7431;49.440;11.084;2023-07-29T06:36:15;2.97;;;1.90;;
14686;SDS011;7431;49.440;11.084;2023-07-29T06:38:41;3.05;;;2.35;;
14686;SDS011;7431;49.440;11.084;2023-07-29T06:41:07;3.15;;;2.35;;
14686;SDS011;7431;49.440;11.084;2023-07-29T06:43:33;2.20;;;1.90;;
14686;SDS011;7431;49.440;11.084;2023-07-29T06:45:59;2.60;;;2.20;;
14686;SDS011;7431;49.440;11.084;2023-07-29T06:48:25;5.53;;;2.85;;
14686;SDS011;7431;49.440;11.084;2023-07-29T06:50:51;3.42;;;2.72;;
14686;SDS011;7431;49.440;11.084;2023-07-29T06:53:18;3.53;;;2.85;;
14686;SDS011;7431;49.440;11.084;2023-07-29T06:55:44;3.15;;;2.58;;
14686;SDS011;7431;49.440;11.084;2023-07-29T06:58:10;3.37;;;2.70;;
14686;SDS011;7431;49.440;11.084;2023-07-29T07:00:36;2.90;;;2.17;;
14686;SDS011;7431;49.440;11.084;2023-07-29T07:03:02;2.45;;;2.20;;
14686;SDS011;7431;49.440;11.084;2023-07-29T07:05:28;4.53;;;2.50;;
14686;SDS011;7431;49.440;11.084;2023-07-29T07:07:54;3.75;;;2.45;;
14686;SDS011;7431;49.440;11.084;2023-07-29T07:10:20;3.42;;;2.53;;
14686;SDS011;7431;49.440;11.084;2023-07-29T07:12:46;5.22;;;3.15;;
14686;SDS011;7431;49.440;11.084;2023-07-29T07:15:12;3.25;;;2.95;;
14686;SDS011;7431;49.440;11.084;2023-07-29T07:17:38;3.60;;;2.83;;
14686;SDS011;7431;49.440;11.084;2023-07-29T07:20:04;4.40;;;3.22;;
14686;SDS011;7431;49.440;11.084;2023-07-29T07:22:31;2.95;;;2.58;;
14686;SDS011;7431;49.440;11.084;2023-07-29T07:24:57;4.70;;;3.03;;
14686;SDS011;7431;49.440;11.084;2023-07-29T07:27:23;3.78;;;2.70;;
14686;SDS011;7431;49.440;11.084;2023-07-29T07:29:49;3.97;;;2.85;;
14686;SDS011;7431;49.440;11.084;2023-07-29T07:32:15;2.70;;;2.30;;
14686;SDS011;7431;49.440;11.084;2023-07-29T07:34:41;2.88;;;2.58;;
14686;SDS011;7431;49.440;11.084;2023-07-29T07:37:07;3.55;;;2.72;;
14686;SDS011;7431;49.440;11.084;2023-07-29T07:39:32;3.33;;;2.40;;
14686;SDS011;7431;49.440;11.084;2023-07-29T07:41:58;4.45;;;2.33;;
14686;SDS011;7431;49.440;11.084;2023-07-29T07:44:24;2.80;;;2.50;;
14686;SDS011;7431;49.440;11.084;2023-07-29T07:46:51;2.83;;;2.40;;
14686;SDS011;7431;49.440;11.084;2023-07-29T07:49:18;4.13;;;2.53;;
14686;SDS011;7431;49.440;11.084;2023-07-29T07:51:44;3.20;;;2.40;;
14686;SDS011;7431;49.440;11.084;2023-07-29T07:54:10;2.50;;;2.30;;
14686;SDS011;7431;49.440;11.084;2023-07-29T07:56:36;3.95;;;2.25;;
14686;SDS011;7431;49.440;11.084;2023-07-29T07:59:02;2.33;;;2.10;;
14686;SDS011;7431;49.440;11.084;2023-07-29T08:01:33;3.65;;;2.38;;
14686;SDS011;7431;49.440;11.084;2023-07-29T08:03:59;3.40;;;2.55;;
14686;SDS011;7431;49.440;11.084;2023-07-29T08:06:25;2.47;;;2.28;;
14686;SDS011;7431;49.440;11.084;2023-07-29T08:08:51;4.57;;;2.58;;
14686;SDS011;7431;49.440;11.084;2023-07-29T08:11:17;3.10;;;2.80;;
14686;SDS011;7431;49.440;11.084;2023-07-29T08:13:43;4.30;;;2.80;;
14686;SDS011;7431;49.440;11.084;2023-07-29T08:16:09;4.45;;;2.90;;
14686;SDS011;7431;49.440;11.084;2023-07-29T08:18:35;3.30;;;3.00;;
14686;SDS011;7431;49.440;11.084;2023-07-29T08:21:01;3.33;;;2.97;;
14686;SDS011;7431;49.440;11.084;2023-07-29T08:23:30;3.33;;;2.83;;
14686;SDS011;7431;49.440;11.084;2023-07-29T08:25:57;3.42;;;2.92;;
14686;SDS011;7431;49.440;11.084;2023-07-29T08:28:27;6.25;;;3.35;;
14686;SDS011;7431;49.440;11.084;2023-07-29T08:30:54;3.35;;;3.05;;
14686;SDS011;7431;49.440;11.084;2023-07-29T08:33:20;3.90;;;3.45;;
14686;SDS011;7431;49.440;11.084;2023-07-29T08:35:45;4.45;;;3.20;;
14686;SDS011;7431;49.440;11.084;2023-07-29T08:38:11;6.07;;;3.55;;
14686;SDS011;7431;49.440;11.084;2023-07-29T08:40:40;4.78;;;3.85;;
14686;SDS011;7431;49.440;11.084;2023-07-29T08:43:07;3.50;;;3.20;;
14686;SDS011;7431;49.440;11.084;2023-07-29T08:45:34;5.07;;;3.25;;
14686;SDS011;7431;49.440;11.084;2023-07-29T08:48:02;5.35;;;3.03;;
14686;SDS011;7431;49.440;11.084;2023-07-29T08:50:29;3.47;;;2.40;;
14686;SDS011;7431;49.440;11.084;2023-07-29T08:52:55;3.38;;;2.67;;
14686;SDS011;7431;49.440;11.084;2023-07-29T08:55:21;3.20;;;2.80;;
14686;SDS011;7431;49.440;11.084;2023-07-29T08:57:47;4.75;;;3.20;;
14686;SDS011;7431;49.440;11.084;2023-07-29T09:00:14;4.40;;;3.13;;
14686;SDS011;7431;49.440;11.084;2023-07-29T09:02:40;3.90;;;2.90;;
14686;SDS011;7431;49.440;11.084;2023-07-29T09:05:06;4.50;;;3.05;;
14686;SDS011;7431;49.440;11.084;2023-07-29T09:07:32;3.75;;;3.10;;
14686;SDS011;7431;49.440;11.084;2023-07-29T09:09:59;5.20;;;2.97;;
14686;SDS011;7431;49.440;11.084;2023-07-29T09:12:25;3.45;;;3.10;;
14686;SDS011;7431;49.440;11.084;2023-07-29T09:14:52;5.57;;;3.55;;
14686;SDS011;7431;49.440;11.084;2023-07-29T09:17:19;3.92;;;2.70;;
14686;SDS011;7431;49.440;11.084;2023-07-29T09:19:50;5.15;;;3.03;;
14686;SDS011;7431;49.440;11.084;2023-07-29T09:22:20;4.40;;;3.50;;
14686;SDS011;7431;49.440;11.084;2023-07-29T09:24:46;3.47;;;2.92;;
14686;SDS011;7431;49.440;11.084;2023-07-29T09:27:25;4.35;;;3.03;;
14686;SDS011;7431;49.440;11.084;2023-07-29T09:29:52;2.92;;;2.63;;
14686;SDS011;7431;49.440;11.084;2023-07-29T09:32:19;3.65;;;3.00;;
14686;SDS011;7431;49.440;11.084;2023-07-29T09:34:45;3.15;;;2.42;;
14686;SDS011;7431;49.440;11.084;2023-07-29T09:37:19;3.80;;;3.20;;
14686;SDS011;7431;49.440;11.084;2023-07-29T09:39:46;4.15;;;3.47;;
14686;SDS011;7431;49.440;11.084;2023-07-29T09:42:19;4.30;;;3.30;;
14686;SDS011;7431;49.440;11.084;2023-07-29T09:44:46;3.90;;;3.50;;
14686;SDS011;7431;49.440;11.084;2023-07-29T09:47:25;6.10;;;3.03;;
14686;SDS011;7431;49.440;11.084;2023-07-29T09:49:54;5.63;;;3.47;;
14686;SDS011;7431;49.440;11.084;2023-07-29T09:52:21;4.07;;;3.55;;
14686;SDS011;7431;49.440;11.084;2023-07-29T09:54:51;5.20;;;3.75;;
14686;SDS011;7431;49.440;11.084;2023-07-29T09:57:18;6.07;;;3.75;;
14686;SDS011;7431;49.440;11.084;2023-07-29T09:59:54;5.05;;;3.40;;
14686;SDS011;7431;49.440;11.084;2023-07-29T10:02:20;3.40;;;2.95;;
14686;SDS011;7431;49.440;11.084;2023-07-29T10:04:46;3.35;;;2.95;;
14686;SDS011;7431;49.440;11.084;2023-07-29T10:07:12;3.25;;;2.92;;
14686;SDS011;7431;49.440;11.084;2023-07-29T10:09:39;3.92;;;3.03;;
14686;SDS011;7431;49.440;11.084;2023-07-29T10:12:08;3.75;;;2.72;;
14686;SDS011;7431;49.440;11.084;2023-07-29T10:14:36;3.08;;;2.78;;
14686;SDS011;7431;49.440;11.084;2023-07-29T10:17:02;3.50;;;2.80;;
14686;SDS011;7431;49.440;11.084;2023-07-29T10:19:28;3.55;;;2.85;;
14686;SDS011;7431;49.440;11.084;2023-07-29T10:21:56;3.30;;;3.00;;
14686;SDS011;7431;49.440;11.084;2023-07-29T10:24:24;4.18;;;3.15;;
14686;SDS011;7431;49.440;11.084;2023-07-29T10:26:54;2.92;;;2.63;;
14686;SDS011;7431;49.440;11.084;2023-07-29T10:29:22;3.67;;;2.60;;
14686;SDS011;7431;49.440;11.084;2023-07-29T10:31:50;2.92;;;2.65;;
14686;SDS011;7431;49.440;11.084;2023-07-29T10:34:18;2.50;;;2.30;;
14686;SDS011;7431;49.440;11.084;2023-07-29T10:36:45;3.35;;;2.70;;
14686;SDS011;7431;49.440;11.084;2023-07-29T10:39:11;2.90;;;2.38;;
14686;SDS011;7431;49.440;11.084;2023-07-29T10:41:54;3.40;;;2.72;;
14686;SDS011;7431;49.440;11.084;2023-07-29T10:47:14;2.88;;;1.95;;
14686;SDS011;7431;49.440;11.084;2023-07-29T10:49:41;2.55;;;2.35;;
14686;SDS011;7431;49.440;11.084;2023-07-29T10:52:07;2.50;;;2.30;;
14686;SDS011;7431;49.440;11.084;2023-07-29T10:54:41;2.40;;;2.20;;
14686;SDS011;7431;49.440;11.084;2023-07-29T10:57:07;2.40;;;2.20;;
14686;SDS011;7431;49.440;11.084;2023-07-29T10:59:34;2.10;;;1.90;;
14686;SDS011;7431;49.440;11.084;2023-07-29T11:02:00;3.42;;;2.00;;
14686;SDS011;7431;49.440;11.084;2023-07-29T11:04:28;2.60;;;1.67;;
14686;SDS011;7431;49.440;11.084;2023-07-29T11:12:32;2.75;;;1.60;;
14686;SDS011;7431;49.440;11.084;2023-07-29T11:14:51;1.50;;;1.40;;
14686;SDS011;7431;49.440;11.084;2023-07-29T11:17:17;1.85;;;1.70;;
14686;SDS011;7431;49.440;11.084;2023-07-29T11:19:44;1.75;;;1.65;;
14686;SDS011;7431;49.440;11.084;2023-07-29T11:22:10;1.70;;;1.60;;
14686;SDS011;7431;49.440;11.084;2023-07-29T11:24:37;1.85;;;1.42;;
14686;SDS011;7431;49.440;11.084;2023-07-29T11:27:03;3.17;;;1.98;;
14686;SDS011;7431;49.440;11.084;2023-07-29T11:29:29;3.45;;;2.15;;
14686;SDS011;7431;49.440;11.084;2023-07-29T11:31:55;4.32;;;2.95;;
14686;SDS011;7431;49.440;11.084;2023-07-29T11:34:31;3.05;;;2.30;;
14686;SDS011;7431;49.440;11.084;2023-07-29T11:36:57;5.18;;;2.70;;
14686;SDS011;7431;49.440;11.084;2023-07-29T11:39:23;2.28;;;2.08;;
14686;SDS011;7431;49.440;11.084;2023-07-29T11:41:49;7.30;;;2.45;;
14686;SDS011;7431;49.440;11.084;2023-07-29T11:44:18;2.22;;;1.92;;
14686;SDS011;7431;49.440;11.084;2023-07-29T11:46:44;2.60;;;2.33;;
14686;SDS011;7431;49.440;11.084;2023-07-29T11:49:10;3.10;;;2.60;;
14686;SDS011;7431;49.440;11.084;2023-07-29T11:51:36;3.28;;;2.70;;
14686;SDS011;7431;49.440;11.084;2023-07-29T11:54:02;3.80;;;2.97;;
14686;SDS011;7431;49.440;11.084;2023-07-29T11:56:29;4.53;;;2.85;;
14686;SDS011;7431;49.440;11.084;2023-07-29T11:58:55;3.42;;;2.50;;
14686;SDS011;7431;49.440;11.084;2023-07-29T12:01:22;2.60;;;2.13;;
14686;SDS011;7431;49.440;11.084;2023-07-29T12:03:49;3.45;;;2.72;;
14686;SDS011;7431;49.440;11.084;2023-07-29T12:06:15;3.28;;;2.40;;
14686;SDS011;7431;49.440;11.084;2023-07-29T12:08:41;2.55;;;2.35;;
14686;SDS011;7431;49.440;11.084;2023-07-29T12:11:08;4.68;;;2.53;;
14686;SDS011;7431;49.440;11.084;2023-07-29T12:13:36;2.42;;;2.22;;
14686;SDS011;7431;49.440;11.084;2023-07-29T12:16:02;4.07;;;2.40;;
14686;SDS011;7431;49.440;11.084;2023-07-29T12:18:32;3.15;;;2.60;;
14686;SDS011;7431;49.440;11.084;2023-07-29T12:20:58;3.35;;;2.53;;
14686;SDS011;7431;49.440;11.084;2023-07-29T12:23:24;3.40;;;2.85;;
14686;SDS011;7431;49.440;11.084;2023-07-29T12:25:51;2.55;;;2.13;;
14686;SDS011;7431;49.440;11.084;2023-07-29T12:28:17;2.95;;;2.00;;
14686;SDS011;7431;49.440;11.084;2023-07-29T12:30:43;2.33;;;1.70;;
14686;SDS011;7431;49.440;11.084;2023-07-29T12:33:09;2.85;;;2.45;;
14686;SDS011;7431;49.440;11.084;2023-07-29T12:35:36;2.25;;;1.98;;
14686;SDS011;7431;49.440;11.084;2023-07-29T12:38:02;2.13;;;1.92;;
14686;SDS011;7431;49.440;11.084;2023-07-29T12:40:28;2.15;;;1.95;;
14686;SDS011;7431;49.440;11.084;2023-07-29T12:42:54;2.97;;;1.60;;
14686;SDS011;7431;49.440;11.084;2023-07-29T12:45:20;3.10;;;2.00;;
14686;SDS011;7431;49.440;11.084;2023-07-29T12:47:48;3.03;;;1.58;;
14686;SDS011;7431;49.440;11.084;2023-07-29T12:50:14;1.40;;;1.30;;
14686;SDS011;7431;49.440;11.084;2023-07-29T12:52:40;1.50;;;1.38;;
14686;SDS011;7431;49.440;11.084;2023-07-29T12:55:06;1.60;;;1.50;;
14686;SDS011;7431;49.440;11.084;2023-07-29T12:57:38;1.60;;;1.50;;
14686;SDS011;7431;49.440;11.084;2023-07-29T13:00:04;2.03;;;1.38;;
14686;SDS011;7431;49.440;11.084;2023-07-29T13:02:31;1.83;;;1.67;;
14686;SDS011;7431;49.440;11.084;2023-07-29T13:04:57;1.90;;;1.80;;
14686;SDS011;7431;49.440;11.084;2023-07-29T13:07:23;1.52;;;1.38;;
14686;SDS011;7431;49.440;11.084;2023-07-29T13:09:49;1.75;;;1.65;;
14686;SDS011;7431;49.440;11.084;2023-07-29T13:12:15;1.63;;;1.52;;
14686;SDS011;7431;49.440;11.084;2023-07-29T13:14:41;1.60;;;1.50;;
14686;SDS011;7431;49.440;11.084;2023-07-29T13:17:07;2.05;;;1.85;;
14686;SDS011;7431;49.440;11.084;2023-07-29T13:19:33;2.15;;;1.73;;
14686;SDS011;7431;49.440;11.084;2023-07-29T13:21:59;1.90;;;1.80;;
14686;SDS011;7431;49.440;11.084;2023-07-29T13:24:27;2.03;;;1.83;;
14686;SDS011;7431;49.440;11.084;2023-07-29T13:26:53;1.80;;;1.70;;
14686;SDS011;7431;49.440;11.084;2023-07-29T13:29:19;2.15;;;1.63;;
14686;SDS011;7431;49.440;11.084;2023-07-29T13:31:45;3.03;;;1.70;;
14686;SDS011;7431;49.440;11.084;2023-07-29T13:34:11;2.17;;;2.08;;
14686;SDS011;7431;49.440;11.084;2023-07-29T13:36:37;1.80;;;1.70;;
14686;SDS011;7431;49.440;11.084;2023-07-29T13:39:03;1.88;;;1.45;;
14686;SDS011;7431;49.440;11.084;2023-07-29T13:41:29;1.70;;;1.60;;
14686;SDS011;7431;49.440;11.084;2023-07-29T13:43:55;1.25;;;1.15;;
14686;SDS011;7431;49.440;11.084;2023-07-29T13:46:21;3.10;;;1.27;;
14686;SDS011;7431;49.440;11.084;2023-07-29T13:48:47;1.70;;;1.60;;
14686;SDS011;7431;49.440;11.084;2023-07-29T13:51:14;1.77;;;1.65;;
14686;SDS011;7431;49.440;11.084;2023-07-29T13:53:40;1.88;;;1.50;;
14686;SDS011;7431;49.440;11.084;2023-07-29T13:56:06;1.70;;;1.30;;
14686;SDS011;7431;49.440;11.084;2023-07-29T13:58:31;2.00;;;1.80;;
14686;SDS011;7431;49.440;11.084;2023-07-29T14:00:57;1.73;;;1.60;;
14686;SDS011;7431;49.440;11.084;2023-07-29T14:03:23;1.65;;;1.55;;
14686;SDS011;7431;49.440;11.084;2023-07-29T14:05:49;1.33;;;1.23;;
14686;SDS011;7431;49.440;11.084;2023-07-29T14:08:15;1.67;;;1.40;;
14686;SDS011;7431;49.440;11.084;2023-07-29T14:10:41;2.17;;;1.40;;
14686;SDS011;7431;49.440;11.084;2023-07-29T14:13:07;1.20;;;1.10;;
14686;SDS011;7431;49.440;11.084;2023-07-29T14:15:33;1.70;;;1.60;;
14686;SDS011;7431;49.440;11.084;2023-07-29T14:17:59;1.90;;;1.80;;
14686;SDS011;7431;49.440;11.084;2023-07-29T14:20:27;1.85;;;1.38;;
14686;SDS011;7431;49.440;11.084;2023-07-29T14:22:53;1.25;;;1.00;;
14686;SDS011;7431;49.440;11.084;2023-07-29T14:25:19;1.50;;;1.17;;
14686;SDS011;7431;49.440;11.084;2023-07-29T14:27:45;1.10;;;1.08;;
14686;SDS011;7431;49.440;11.084;2023-07-29T14:30:11;1.25;;;1.17;;
14686;SDS011;7431;49.440;11.084;2023-07-29T14:32:37;1.10;;;1.10;;
14686;SDS011;7431;49.440;11.084;2023-07-29T14:35:03;1.80;;;1.38;;
14686;SDS011;7431;49.440;11.084;2023-07-29T14:37:30;2.38;;;1.15;;
14686;SDS011;7431;49.440;11.084;2023-07-29T14:39:57;1.20;;;1.10;;
14686;SDS011;7431;49.440;11.084;2023-07-29T14:42:23;1.02;;;0.93;;
14686;SDS011;7431;49.440;11.084;2023-07-29T14:44:49;1.50;;;1.40;;
14686;SDS011;7431;49.440;11.084;2023-07-29T14:47:15;1.17;;;1.10;;
14686;SDS011;7431;49.440;11.084;2023-07-29T14:49:41;1.20;;;1.10;;
14686;SDS011;7431;49.440;11.084;2023-07-29T14:52:07;1.60;;;1.42;;
14686;SDS011;7431;49.440;11.084;2023-07-29T14:54:33;1.30;;;1.17;;
14686;SDS011;7431;49.440;11.084;2023-07-29T14:56:59;1.40;;;1.30;;